sensor_id;sensor_type;location;lat;lon;timestamp;pressure;altitude;pressure_sealevel;temperature;humidity
78888;BME280;68276;49.326;8.690;2023-06-24T00:02:10;101119.00;;;19.71;68.00
78888;BME280;68276;49.326;8.690;2023-06-24T00:04:36;101108.63;;;19.62;67.95
78888;BME280;68276;49.326;8.690;2023-06-24T00:07:01;101109.69;;;19.61;67.34
78888;BME280;68276;49.326;8.690;2023-06-24T00:09:27;101103.59;;;19.59;67.97
78888;BME280;68276;49.326;8.690;2023-06-24T00:11:56;101106.41;;;19.52;68.29
78888;BME280;68276;49.326;8.690;2023-06-24T00:14:24;101110.44;;;19.50;68.63
78888;BME280;68276;49.326;8.690;2023-06-24T00:16:54;101104.91;;;19.56;67.63
78888;BME280;68276;49.326;8.690;2023-06-24T00:19:21;101107.09;;;19.48;68.06
78888;BME280;68276;49.326;8.690;2023-06-24T00:21:51;101106.88;;;19.49;68.15
78888;BME280;68276;49.326;8.690;2023-06-24T00:24:20;101109.59;;;19.49;67.83
78888;BME280;68276;49.326;8.690;2023-06-24T00:26:51;101108.13;;;19.47;68.29
78888;BME280;68276;49.326;8.690;2023-06-24T00:29:18;101105.88;;;19.44;68.22
78888;BME280;68276;49.326;8.690;2023-06-24T00:31:43;101105.53;;;19.58;67.48
78888;BME280;68276;49.326;8.690;2023-06-24T00:34:08;101111.84;;;19.52;67.68
78888;BME280;68276;49.326;8.690;2023-06-24T00:36:34;101112.69;;;19.53;68.07
78888;BME280;68276;49.326;8.690;2023-06-24T00:39:06;101111.78;;;19.41;67.79
78888;BME280;68276;49.326;8.690;2023-06-24T00:41:33;101109.31;;;19.32;68.54
78888;BME280;68276;49.326;8.690;2023-06-24T00:43:59;101110.47;;;19.43;68.28
78888;BME280;68276;49.326;8.690;2023-06-24T00:46:27;101102.59;;;19.35;69.01
78888;BME280;68276;49.326;8.690;2023-06-24T00:48:55;101113.09;;;19.31;69.41
78888;BME280;68276;49.326;8.690;2023-06-24T00:51:21;101113.09;;;19.31;70.73
78888;BME280;68276;49.326;8.690;2023-06-24T00:53:47;101112.97;;;19.20;70.69
78888;BME280;68276;49.326;8.690;2023-06-24T00:56:16;101103.91;;;19.26;70.23
78888;BME280;68276;49.326;8.690;2023-06-24T00:58:44;101113.78;;;19.20;70.30
78888;BME280;68276;49.326;8.690;2023-06-24T01:01:09;101110.91;;;19.15;70.07
78888;BME280;68276;49.326;8.690;2023-06-24T01:03:36;101112.13;;;19.19;69.57
78888;BME280;68276;49.326;8.690;2023-06-24T01:06:02;101110.50;;;19.12;69.88
78888;BME280;68276;49.326;8.690;2023-06-24T01:08:28;101114.25;;;19.17;70.26
78888;BME280;68276;49.326;8.690;2023-06-24T01:10:53;101112.84;;;19.08;70.98
78888;BME280;68276;49.326;8.690;2023-06-24T01:13:19;101118.03;;;19.16;69.31
78888;BME280;68276;49.326;8.690;2023-06-24T01:15:46;101122.88;;;19.14;69.63
78888;BME280;68276;49.326;8.690;2023-06-24T01:21:03;101124.34;;;19.10;70.48
78888;BME280;68276;49.326;8.690;2023-06-24T01:36:52;101117.22;;;18.85;72.23
78888;BME280;68276;49.326;8.690;2023-06-24T01:39:21;101111.09;;;18.89;72.17
78888;BME280;68276;49.326;8.690;2023-06-24T01:41:57;101111.72;;;18.91;72.14
78888;BME280;68276;49.326;8.690;2023-06-24T01:44:25;101109.16;;;18.96;72.54
78888;BME280;68276;49.326;8.690;2023-06-24T01:46:55;101110.13;;;18.84;72.50
78888;BME280;68276;49.326;8.690;2023-06-24T01:49:23;101112.44;;;18.80;73.06
78888;BME280;68276;49.326;8.690;2023-06-24T01:51:52;101114.28;;;18.86;73.09
78888;BME280;68276;49.326;8.690;2023-06-24T01:54:20;101116.81;;;18.81;72.08
78888;BME280;68276;49.326;8.690;2023-06-24T01:56:49;101111.78;;;18.85;73.44
78888;BME280;68276;49.326;8.690;2023-06-24T01:59:17;101110.59;;;18.74;72.93
78888;BME280;68276;49.326;8.690;2023-06-24T02:01:45;101114.78;;;18.70;73.53
78888;BME280;68276;49.326;8.690;2023-06-24T02:04:13;101103.91;;;18.70;73.43
78888;BME280;68276;49.326;8.690;2023-06-24T02:06:40;101110.16;;;18.77;72.74
78888;BME280;68276;49.326;8.690;2023-06-24T02:09:06;101112.91;;;18.71;72.81
78888;BME280;68276;49.326;8.690;2023-06-24T02:11:34;101110.31;;;18.82;70.70
78888;BME280;68276;49.326;8.690;2023-06-24T02:14:01;101110.16;;;18.77;70.72
78888;BME280;68276;49.326;8.690;2023-06-24T02:16:29;101111.84;;;18.78;70.78
78888;BME280;68276;49.326;8.690;2023-06-24T02:18:55;101105.16;;;18.74;71.24
78888;BME280;68276;49.326;8.690;2023-06-24T02:21:23;101099.31;;;18.71;71.82
78888;BME280;68276;49.326;8.690;2023-06-24T02:23:50;101113.13;;;18.69;72.06
78888;BME280;68276;49.326;8.690;2023-06-24T02:26:16;101104.34;;;18.67;71.97
78888;BME280;68276;49.326;8.690;2023-06-24T02:28:44;101102.09;;;18.64;72.20
78888;BME280;68276;49.326;8.690;2023-06-24T02:31:12;101105.19;;;18.68;71.69
78888;BME280;68276;49.326;8.690;2023-06-24T02:33:38;101114.63;;;18.65;71.32
78888;BME280;68276;49.326;8.690;2023-06-24T02:36:04;101116.94;;;18.62;72.22
78888;BME280;68276;49.326;8.690;2023-06-24T02:38:29;101118.00;;;18.61;72.34
78888;BME280;68276;49.326;8.690;2023-06-24T02:40:55;101124.75;;;18.52;72.97
78888;BME280;68276;49.326;8.690;2023-06-24T02:43:21;101126.03;;;18.49;73.46
78888;BME280;68276;49.326;8.690;2023-06-24T02:45:47;101123.56;;;18.41;73.39
78888;BME280;68276;49.326;8.690;2023-06-24T02:48:15;101121.22;;;18.45;73.96
78888;BME280;68276;49.326;8.690;2023-06-24T02:50:41;101120.84;;;18.41;74.27
78888;BME280;68276;49.326;8.690;2023-06-24T02:53:10;101129.16;;;18.53;75.05
78888;BME280;68276;49.326;8.690;2023-06-24T02:55:36;101125.47;;;18.41;74.50
78888;BME280;68276;49.326;8.690;2023-06-24T02:58:03;101127.13;;;18.35;74.77
78888;BME280;68276;49.326;8.690;2023-06-24T03:00:30;101120.84;;;18.35;74.89
78888;BME280;68276;49.326;8.690;2023-06-24T03:03:00;101119.00;;;18.22;75.16
78888;BME280;68276;49.326;8.690;2023-06-24T03:05:25;101124.88;;;18.19;75.38
78888;BME280;68276;49.326;8.690;2023-06-24T03:07:51;101129.50;;;18.12;76.49
78888;BME280;68276;49.326;8.690;2023-06-24T03:10:18;101122.81;;;18.14;77.06
78888;BME280;68276;49.326;8.690;2023-06-24T03:12:43;101132.22;;;18.12;77.67
78888;BME280;68276;49.326;8.690;2023-06-24T03:15:09;101131.19;;;18.06;77.39
78888;BME280;68276;49.326;8.690;2023-06-24T03:17:35;101133.09;;;18.06;77.80
78888;BME280;68276;49.326;8.690;2023-06-24T03:20:01;101127.25;;;17.96;79.10
78888;BME280;68276;49.326;8.690;2023-06-24T03:22:26;101130.22;;;17.88;80.10
78888;BME280;68276;49.326;8.690;2023-06-24T03:24:51;101126.69;;;17.81;81.00
78888;BME280;68276;49.326;8.690;2023-06-24T03:27:17;101126.91;;;17.79;82.23
78888;BME280;68276;49.326;8.690;2023-06-24T03:29:43;101136.09;;;17.72;82.72
78888;BME280;68276;49.326;8.690;2023-06-24T03:32:09;101141.16;;;17.62;84.36
78888;BME280;68276;49.326;8.690;2023-06-24T03:34:34;101140.34;;;17.48;85.46
78888;BME280;68276;49.326;8.690;2023-06-24T03:37:00;101143.84;;;17.36;86.94
78888;BME280;68276;49.326;8.690;2023-06-24T03:39:26;101152.00;;;17.36;87.22
78888;BME280;68276;49.326;8.690;2023-06-24T03:41:51;101145.72;;;17.35;87.35
78888;BME280;68276;49.326;8.690;2023-06-24T03:44:16;101143.00;;;17.35;87.78
78888;BME280;68276;49.326;8.690;2023-06-24T03:46:42;101141.78;;;17.38;88.05
78888;BME280;68276;49.326;8.690;2023-06-24T03:49:07;101147.22;;;17.31;88.65
78888;BME280;68276;49.326;8.690;2023-06-24T03:51:33;101152.44;;;17.33;88.76
78888;BME280;68276;49.326;8.690;2023-06-24T03:53:59;101148.03;;;17.32;89.33
78888;BME280;68276;49.326;8.690;2023-06-24T03:56:24;101148.25;;;17.30;90.31
78888;BME280;68276;49.326;8.690;2023-06-24T03:58:50;101148.25;;;17.30;90.35
78888;BME280;68276;49.326;8.690;2023-06-24T04:01:15;101147.81;;;17.27;90.53
78888;BME280;68276;49.326;8.690;2023-06-24T04:03:44;101150.56;;;17.33;91.57
78888;BME280;68276;49.326;8.690;2023-06-24T04:06:09;101150.75;;;17.32;91.61
78888;BME280;68276;49.326;8.690;2023-06-24T04:08:35;101153.69;;;17.37;91.21
78888;BME280;68276;49.326;8.690;2023-06-24T04:11:04;101158.06;;;17.31;92.38
78888;BME280;68276;49.326;8.690;2023-06-24T04:13:31;101154.53;;;17.31;92.58
78888;BME280;68276;49.326;8.690;2023-06-24T04:15:58;101160.38;;;17.28;92.66
78888;BME280;68276;49.326;8.690;2023-06-24T04:18:23;101159.09;;;17.24;92.93
78888;BME280;68276;49.326;8.690;2023-06-24T04:20:49;101160.38;;;17.21;93.71
78888;BME280;68276;49.326;8.690;2023-06-24T04:23:14;101159.53;;;17.14;94.97
78888;BME280;68276;49.326;8.690;2023-06-24T04:25:40;101154.72;;;17.09;95.27
78888;BME280;68276;49.326;8.690;2023-06-24T04:28:06;101154.47;;;16.85;97.22
78888;BME280;68276;49.326;8.690;2023-06-24T04:30:32;101161.78;;;16.91;97.50
78888;BME280;68276;49.326;8.690;2023-06-24T04:32:57;101172.66;;;16.97;96.83
78888;BME280;68276;49.326;8.690;2023-06-24T04:35:24;101166.81;;;17.00;96.36
78888;BME280;68276;49.326;8.690;2023-06-24T04:37:49;101163.69;;;17.03;96.82
78888;BME280;68276;49.326;8.690;2023-06-24T04:40:17;101177.69;;;17.13;96.07
78888;BME280;68276;49.326;8.690;2023-06-24T04:42:42;101177.47;;;17.28;94.74
78888;BME280;68276;49.326;8.690;2023-06-24T04:45:08;101178.16;;;17.37;94.46
78888;BME280;68276;49.326;8.690;2023-06-24T04:47:33;101181.28;;;17.40;94.20
78888;BME280;68276;49.326;8.690;2023-06-24T04:49:59;101186.53;;;17.48;94.38
78888;BME280;68276;49.326;8.690;2023-06-24T04:52:24;101180.06;;;17.56;94.38
78888;BME280;68276;49.326;8.690;2023-06-24T04:54:50;101186.28;;;17.63;93.41
78888;BME280;68276;49.326;8.690;2023-06-24T04:57:30;101185.47;;;17.69;92.68
78888;BME280;68276;49.326;8.690;2023-06-24T04:59:57;101186.09;;;17.64;92.68
78888;BME280;68276;49.326;8.690;2023-06-24T05:02:23;101186.25;;;18.02;89.15
78888;BME280;68276;49.326;8.690;2023-06-24T05:04:49;101184.09;;;18.17;88.25
78888;BME280;68276;49.326;8.690;2023-06-24T05:07:15;101181.56;;;18.22;85.75
78888;BME280;68276;49.326;8.690;2023-06-24T05:09:40;101189.47;;;18.37;85.37
78888;BME280;68276;49.326;8.690;2023-06-24T05:12:07;101184.19;;;18.61;80.19
78888;BME280;68276;49.326;8.690;2023-06-24T05:14:36;101177.44;;;18.64;78.40
78888;BME280;68276;49.326;8.690;2023-06-24T05:17:05;101188.00;;;18.85;73.41
78888;BME280;68276;49.326;8.690;2023-06-24T05:19:30;101187.91;;;18.98;73.52
78888;BME280;68276;49.326;8.690;2023-06-24T05:21:56;101189.09;;;19.15;71.48
78888;BME280;68276;49.326;8.690;2023-06-24T05:24:21;101193.78;;;19.32;71.33
78888;BME280;68276;49.326;8.690;2023-06-24T05:26:49;101197.84;;;19.48;69.69
78888;BME280;68276;49.326;8.690;2023-06-24T05:29:15;101197.44;;;19.51;69.13
78888;BME280;68276;49.326;8.690;2023-06-24T05:31:41;101197.34;;;19.58;68.78
78888;BME280;68276;49.326;8.690;2023-06-24T05:34:06;101204.59;;;19.46;68.61
78888;BME280;68276;49.326;8.690;2023-06-24T05:36:32;101206.47;;;19.45;70.55
78888;BME280;68276;49.326;8.690;2023-06-24T05:39:00;101204.59;;;19.46;69.85
78888;BME280;68276;49.326;8.690;2023-06-24T05:41:25;101204.47;;;19.59;69.06
78888;BME280;68276;49.326;8.690;2023-06-24T05:44:02;101199.63;;;19.61;69.31
78888;BME280;68276;49.326;8.690;2023-06-24T05:46:27;101201.47;;;19.67;69.01
78888;BME280;68276;49.326;8.690;2023-06-24T05:48:53;101196.84;;;19.67;68.90
78888;BME280;68276;49.326;8.690;2023-06-24T05:51:18;101201.63;;;19.72;68.69
78888;BME280;68276;49.326;8.690;2023-06-24T05:53:43;101199.94;;;19.71;68.54
78888;BME280;68276;49.326;8.690;2023-06-24T05:56:09;101200.34;;;19.74;68.87
78888;BME280;68276;49.326;8.690;2023-06-24T05:58:34;101199.22;;;19.82;68.21
78888;BME280;68276;49.326;8.690;2023-06-24T06:00:59;101197.66;;;19.92;67.69
78888;BME280;68276;49.326;8.690;2023-06-24T06:03:26;101197.81;;;19.97;67.72
78888;BME280;68276;49.326;8.690;2023-06-24T06:05:51;101200.94;;;20.01;66.47
78888;BME280;68276;49.326;8.690;2023-06-24T06:08:17;101193.50;;;20.08;65.94
78888;BME280;68276;49.326;8.690;2023-06-24T06:10:42;101203.97;;;20.11;65.67
78888;BME280;68276;49.326;8.690;2023-06-24T06:13:07;101206.91;;;20.09;66.26
78888;BME280;68276;49.326;8.690;2023-06-24T06:15:33;101209.75;;;20.21;65.98
78888;BME280;68276;49.326;8.690;2023-06-24T06:17:58;101212.81;;;20.31;65.93
78888;BME280;68276;49.326;8.690;2023-06-24T06:20:23;101213.56;;;20.38;65.56
78888;BME280;68276;49.326;8.690;2023-06-24T06:22:48;101210.38;;;20.41;65.06
78888;BME280;68276;49.326;8.690;2023-06-24T06:25:16;101199.59;;;20.46;65.19
78888;BME280;68276;49.326;8.690;2023-06-24T06:27:41;101204.97;;;20.52;64.37
78888;BME280;68276;49.326;8.690;2023-06-24T06:30:07;101213.69;;;20.61;64.60
78888;BME280;68276;49.326;8.690;2023-06-24T06:32:32;101213.06;;;20.77;63.48
78888;BME280;68276;49.326;8.690;2023-06-24T06:34:57;101209.47;;;20.95;62.51
78888;BME280;68276;49.326;8.690;2023-06-24T06:37:23;101209.88;;;21.10;61.75
78888;BME280;68276;49.326;8.690;2023-06-24T06:39:48;101216.34;;;20.97;62.36
78888;BME280;68276;49.326;8.690;2023-06-24T06:42:13;101220.16;;;20.96;63.04
78888;BME280;68276;49.326;8.690;2023-06-24T06:44:39;101214.56;;;20.91;63.19
78888;BME280;68276;49.326;8.690;2023-06-24T06:47:05;101216.88;;;21.06;62.37
78888;BME280;68276;49.326;8.690;2023-06-24T06:49:30;101212.34;;;21.29;60.85
78888;BME280;68276;49.326;8.690;2023-06-24T06:51:56;101214.25;;;21.40;60.49
78888;BME280;68276;49.326;8.690;2023-06-24T06:54:21;101216.66;;;21.60;59.95
78888;BME280;68276;49.326;8.690;2023-06-24T06:56:46;101213.94;;;21.72;58.76
78888;BME280;68276;49.326;8.690;2023-06-24T06:59:12;101207.06;;;21.81;59.43
78888;BME280;68276;49.326;8.690;2023-06-24T07:01:37;101204.56;;;21.91;58.56
78888;BME280;68276;49.326;8.690;2023-06-24T07:04:03;101199.44;;;21.94;58.20
78888;BME280;68276;49.326;8.690;2023-06-24T07:06:28;101196.00;;;22.10;58.03
78888;BME280;68276;49.326;8.690;2023-06-24T07:08:54;101196.97;;;21.93;57.51
78888;BME280;68276;49.326;8.690;2023-06-24T07:11:20;101206.00;;;22.05;57.50
78888;BME280;68276;49.326;8.690;2023-06-24T07:13:45;101201.34;;;22.28;55.68
78888;BME280;68276;49.326;8.690;2023-06-24T07:16:11;101198.19;;;22.48;54.62
78888;BME280;68276;49.326;8.690;2023-06-24T07:18:36;101204.38;;;22.66;53.82
78888;BME280;68276;49.326;8.690;2023-06-24T07:21:02;101201.59;;;22.78;53.12
78888;BME280;68276;49.326;8.690;2023-06-24T07:23:27;101200.50;;;22.79;52.06
78888;BME280;68276;49.326;8.690;2023-06-24T07:25:53;101197.56;;;22.69;52.49
78888;BME280;68276;49.326;8.690;2023-06-24T07:28:18;101200.41;;;22.74;52.58
78888;BME280;68276;49.326;8.690;2023-06-24T07:30:43;101198.44;;;22.86;51.70
78888;BME280;68276;49.326;8.690;2023-06-24T07:33:09;101200.81;;;22.94;51.67
78888;BME280;68276;49.326;8.690;2023-06-24T07:35:35;101202.97;;;22.92;51.20
78888;BME280;68276;49.326;8.690;2023-06-24T07:38:00;101204.25;;;23.18;50.66
78888;BME280;68276;49.326;8.690;2023-06-24T07:40:26;101200.66;;;23.17;49.56
78888;BME280;68276;49.326;8.690;2023-06-24T07:42:52;101200.59;;;22.84;49.89
78888;BME280;68276;49.326;8.690;2023-06-24T07:45:20;101195.78;;;22.91;51.17
78888;BME280;68276;49.326;8.690;2023-06-24T07:47:45;101193.88;;;23.20;50.37
78888;BME280;68276;49.326;8.690;2023-06-24T07:50:10;101194.75;;;23.37;50.22
78888;BME280;68276;49.326;8.690;2023-06-24T07:52:38;101191.09;;;23.64;48.93
78888;BME280;68276;49.326;8.690;2023-06-24T07:55:04;101193.91;;;23.69;48.71
78888;BME280;68276;49.326;8.690;2023-06-24T07:57:30;101194.31;;;23.78;46.75
78888;BME280;68276;49.326;8.690;2023-06-24T07:59:55;101187.16;;;23.94;46.17
78888;BME280;68276;49.326;8.690;2023-06-24T08:02:21;101192.56;;;23.89;46.51
78888;BME280;68276;49.326;8.690;2023-06-24T08:04:46;101197.97;;;23.83;47.06
78888;BME280;68276;49.326;8.690;2023-06-24T08:07:11;101190.47;;;23.96;47.22
78888;BME280;68276;49.326;8.690;2023-06-24T08:09:37;101193.31;;;24.17;47.61
78888;BME280;68276;49.326;8.690;2023-06-24T08:12:03;101177.66;;;24.39;45.91
78888;BME280;68276;49.326;8.690;2023-06-24T08:14:28;101188.41;;;24.41;47.34
78888;BME280;68276;49.326;8.690;2023-06-24T08:16:54;101188.69;;;24.66;46.71
78888;BME280;68276;49.326;8.690;2023-06-24T08:19:19;101185.91;;;24.82;45.86
78888;BME280;68276;49.326;8.690;2023-06-24T08:21:45;101185.78;;;24.72;45.73
78888;BME280;68276;49.326;8.690;2023-06-24T08:24:10;101185.00;;;24.77;44.59
78888;BME280;68276;49.326;8.690;2023-06-24T08:26:35;101180.78;;;24.91;43.58
78888;BME280;68276;49.326;8.690;2023-06-24T08:29:01;101180.06;;;25.06;43.62
78888;BME280;68276;49.326;8.690;2023-06-24T08:31:26;101184.22;;;24.81;45.35
78888;BME280;68276;49.326;8.690;2023-06-24T08:33:52;101177.44;;;24.89;46.23
78888;BME280;68276;49.326;8.690;2023-06-24T08:36:26;101179.97;;;24.96;46.04
78888;BME280;68276;49.326;8.690;2023-06-24T08:38:52;101179.88;;;25.12;45.72
78888;BME280;68276;49.326;8.690;2023-06-24T08:41:17;101183.88;;;25.26;45.37
78888;BME280;68276;49.326;8.690;2023-06-24T08:43:43;101180.03;;;25.27;44.89
78888;BME280;68276;49.326;8.690;2023-06-24T08:46:08;101184.84;;;25.37;44.50
78888;BME280;68276;49.326;8.690;2023-06-24T08:48:35;101181.97;;;25.32;44.69
78888;BME280;68276;49.326;8.690;2023-06-24T08:51:07;101185.22;;;25.50;44.20
78888;BME280;68276;49.326;8.690;2023-06-24T08:53:33;101184.41;;;25.28;43.59
78888;BME280;68276;49.326;8.690;2023-06-24T08:55:59;101179.19;;;25.27;44.22
78888;BME280;68276;49.326;8.690;2023-06-24T08:58:25;101175.81;;;24.88;44.50
78888;BME280;68276;49.326;8.690;2023-06-24T09:00:51;101178.25;;;25.16;43.48
78888;BME280;68276;49.326;8.690;2023-06-24T09:03:17;101171.28;;;25.62;42.83
78888;BME280;68276;49.326;8.690;2023-06-24T09:05:42;101184.78;;;25.68;42.17
78888;BME280;68276;49.326;8.690;2023-06-24T09:08:09;101180.66;;;25.66;41.10
78888;BME280;68276;49.326;8.690;2023-06-24T09:10:36;101169.94;;;25.64;39.50
78888;BME280;68276;49.326;8.690;2023-06-24T09:13:05;101171.63;;;25.75;39.29
78888;BME280;68276;49.326;8.690;2023-06-24T09:15:37;101174.31;;;25.65;38.74
78888;BME280;68276;49.326;8.690;2023-06-24T09:18:03;101167.84;;;25.81;39.79
78888;BME280;68276;49.326;8.690;2023-06-24T09:20:30;101155.94;;;25.39;40.02
78888;BME280;68276;49.326;8.690;2023-06-24T09:23:01;101157.34;;;25.78;39.88
78888;BME280;68276;49.326;8.690;2023-06-24T09:25:28;101155.16;;;25.80;38.95
78888;BME280;68276;49.326;8.690;2023-06-24T09:27:54;101152.41;;;25.80;40.27
78888;BME280;68276;49.326;8.690;2023-06-24T09:30:21;101146.84;;;26.17;39.87
78888;BME280;68276;49.326;8.690;2023-06-24T09:32:48;101146.63;;;26.29;40.10
78888;BME280;68276;49.326;8.690;2023-06-24T09:35:14;101141.78;;;26.51;40.12
78888;BME280;68276;49.326;8.690;2023-06-24T09:37:41;101142.88;;;26.60;39.96
78888;BME280;68276;49.326;8.690;2023-06-24T09:40:07;101143.34;;;26.32;39.29
78888;BME280;68276;49.326;8.690;2023-06-24T09:42:35;101142.06;;;26.54;40.29
78888;BME280;68276;49.326;8.690;2023-06-24T09:45:04;101140.66;;;26.47;39.76
78888;BME280;68276;49.326;8.690;2023-06-24T09:47:30;101139.53;;;26.43;39.62
78888;BME280;68276;49.326;8.690;2023-06-24T09:49:56;101131.25;;;26.43;38.96
78888;BME280;68276;49.326;8.690;2023-06-24T09:52:22;101126.88;;;26.52;39.00
78888;BME280;68276;49.326;8.690;2023-06-24T09:54:50;101124.94;;;26.47;38.74
78888;BME280;68276;49.326;8.690;2023-06-24T09:57:26;101124.16;;;26.62;39.57
78888;BME280;68276;49.326;8.690;2023-06-24T09:59:52;101122.28;;;26.82;39.34
78888;BME280;68276;49.326;8.690;2023-06-24T10:02:18;101114.34;;;26.96;39.42
78888;BME280;68276;49.326;8.690;2023-06-24T10:04:44;101114.56;;;26.74;38.33
78888;BME280;68276;49.326;8.690;2023-06-24T10:07:10;101109.66;;;27.27;37.89
78888;BME280;68276;49.326;8.690;2023-06-24T10:09:38;101112.13;;;27.18;36.37
78888;BME280;68276;49.326;8.690;2023-06-24T10:12:03;101113.00;;;27.34;37.34
78888;BME280;68276;49.326;8.690;2023-06-24T10:14:30;101108.31;;;27.39;37.48
78888;BME280;68276;49.326;8.690;2023-06-24T10:17:04;101102.75;;;26.84;38.59
78888;BME280;68276;49.326;8.690;2023-06-24T10:19:30;101108.00;;;27.10;38.25
78888;BME280;68276;49.326;8.690;2023-06-24T10:22:02;101099.47;;;27.32;37.32
78888;BME280;68276;49.326;8.690;2023-06-24T10:24:31;101099.47;;;27.42;37.45
78888;BME280;68276;49.326;8.690;2023-06-24T10:29:34;101090.63;;;27.40;36.75
78888;BME280;68276;49.326;8.690;2023-06-24T10:32:04;101086.75;;;27.21;38.03
78888;BME280;68276;49.326;8.690;2023-06-24T10:34:42;101085.91;;;27.10;37.97
78888;BME280;68276;49.326;8.690;2023-06-24T10:37:31;101082.88;;;27.12;37.20
78888;BME280;68276;49.326;8.690;2023-06-24T10:39:58;101072.69;;;27.43;37.00
78888;BME280;68276;49.326;8.690;2023-06-24T10:42:43;101077.84;;;27.74;37.32
78888;BME280;68276;49.326;8.690;2023-06-24T10:47:34;101067.34;;;27.76;36.48
78888;BME280;68276;49.326;8.690;2023-06-24T10:50:00;101059.56;;;27.98;35.90
78888;BME280;68276;49.326;8.690;2023-06-24T10:52:25;101060.69;;;27.87;36.42
78888;BME280;68276;49.326;8.690;2023-06-24T10:54:52;101051.72;;;27.32;37.43
78888;BME280;68276;49.326;8.690;2023-06-24T10:57:25;101046.09;;;27.77;35.79
78888;BME280;68276;49.326;8.690;2023-06-24T10:59:52;101043.44;;;28.26;34.67
78888;BME280;68276;49.326;8.690;2023-06-24T11:02:20;101042.47;;;27.96;35.08
78888;BME280;68276;49.326;8.690;2023-06-24T11:04:53;101040.97;;;28.14;34.21
78888;BME280;68276;49.326;8.690;2023-06-24T11:07:24;101031.34;;;28.11;34.39
78888;BME280;68276;49.326;8.690;2023-06-24T11:09:51;101020.91;;;28.03;34.68
78888;BME280;68276;49.326;8.690;2023-06-24T11:12:17;101025.31;;;28.04;34.47
78888;BME280;68276;49.326;8.690;2023-06-24T11:14:43;101021.19;;;27.97;34.33
78888;BME280;68276;49.326;8.690;2023-06-24T11:17:08;101022.94;;;28.32;33.76
78888;BME280;68276;49.326;8.690;2023-06-24T11:19:34;101021.50;;;28.39;32.35
78888;BME280;68276;49.326;8.690;2023-06-24T11:22:05;101011.59;;;28.33;32.87
78888;BME280;68276;49.326;8.690;2023-06-24T11:24:30;101015.06;;;28.49;33.54
78888;BME280;68276;49.326;8.690;2023-06-24T11:26:56;101010.00;;;28.71;32.86
78888;BME280;68276;49.326;8.690;2023-06-24T11:29:22;101015.81;;;28.98;33.06
78888;BME280;68276;49.326;8.690;2023-06-24T11:31:49;101017.19;;;28.23;33.70
78888;BME280;68276;49.326;8.690;2023-06-24T11:34:14;101006.50;;;28.55;33.36
78888;BME280;68276;49.326;8.690;2023-06-24T11:36:40;101002.19;;;28.78;32.51
78888;BME280;68276;49.326;8.690;2023-06-24T11:39:05;101003.38;;;28.95;31.74
78888;BME280;68276;49.326;8.690;2023-06-24T11:41:30;101003.63;;;28.99;31.48
78888;BME280;68276;49.326;8.690;2023-06-24T11:43:59;101004.09;;;29.40;31.33
78888;BME280;68276;49.326;8.690;2023-06-24T11:46:28;101004.19;;;29.01;30.59
78888;BME280;68276;49.326;8.690;2023-06-24T11:49:08;101002.69;;;28.80;31.56
78888;BME280;68276;49.326;8.690;2023-06-24T11:51:35;100979.19;;;27.90;31.70
78888;BME280;68276;49.326;8.690;2023-06-24T11:54:04;100993.25;;;28.52;31.52
78888;BME280;68276;49.326;8.690;2023-06-24T11:56:34;100996.88;;;29.15;30.50
78888;BME280;68276;49.326;8.690;2023-06-24T11:59:00;100986.69;;;29.86;30.91
78888;BME280;68276;49.326;8.690;2023-06-24T12:01:31;100986.03;;;29.71;31.09
78888;BME280;68276;49.326;8.690;2023-06-24T12:03:56;100986.41;;;29.36;30.07
78888;BME280;68276;49.326;8.690;2023-06-24T12:06:21;100974.53;;;29.82;29.63
78888;BME280;68276;49.326;8.690;2023-06-24T12:08:47;100974.22;;;29.84;30.34
78888;BME280;68276;49.326;8.690;2023-06-24T12:11:12;100980.22;;;29.91;29.74
78888;BME280;68276;49.326;8.690;2023-06-24T12:13:37;100970.38;;;29.56;29.95
78888;BME280;68276;49.326;8.690;2023-06-24T12:16:03;100967.69;;;29.51;29.76
78888;BME280;68276;49.326;8.690;2023-06-24T12:18:28;100962.53;;;28.87;30.91
78888;BME280;68276;49.326;8.690;2023-06-24T12:20:54;100966.00;;;29.32;30.18
78888;BME280;68276;49.326;8.690;2023-06-24T12:23:20;100958.66;;;30.06;30.63
78888;BME280;68276;49.326;8.690;2023-06-24T12:25:45;100957.94;;;30.19;29.17
78888;BME280;68276;49.326;8.690;2023-06-24T12:28:11;100956.00;;;30.39;28.53
78888;BME280;68276;49.326;8.690;2023-06-24T12:30:36;100950.25;;;30.35;28.49
78888;BME280;68276;49.326;8.690;2023-06-24T12:33:02;100958.97;;;30.61;28.47
78888;BME280;68276;49.326;8.690;2023-06-24T12:35:28;100949.22;;;30.82;27.96
78888;BME280;68276;49.326;8.690;2023-06-24T12:37:53;100946.47;;;30.45;28.13
78888;BME280;68276;49.326;8.690;2023-06-24T12:40:19;100940.00;;;30.68;27.81
78888;BME280;68276;49.326;8.690;2023-06-24T12:42:44;100937.94;;;30.04;28.97
78888;BME280;68276;49.326;8.690;2023-06-24T12:45:10;100928.53;;;29.39;29.57
78888;BME280;68276;49.326;8.690;2023-06-24T12:47:35;100933.50;;;29.84;29.18
78888;BME280;68276;49.326;8.690;2023-06-24T12:50:01;100923.09;;;29.95;29.72
78888;BME280;68276;49.326;8.690;2023-06-24T12:52:26;100927.41;;;30.24;29.47
78888;BME280;68276;49.326;8.690;2023-06-24T12:54:51;100917.63;;;29.90;29.40
78888;BME280;68276;49.326;8.690;2023-06-24T12:57:17;100917.94;;;30.07;29.15
78888;BME280;68276;49.326;8.690;2023-06-24T12:59:43;100919.84;;;30.30;28.73
78888;BME280;68276;49.326;8.690;2023-06-24T13:02:08;100912.84;;;30.97;28.00
78888;BME280;68276;49.326;8.690;2023-06-24T13:04:34;100912.78;;;31.56;27.26
78888;BME280;68276;49.326;8.690;2023-06-24T13:06:59;100912.69;;;31.61;27.49
78888;BME280;68276;49.326;8.690;2023-06-24T13:09:25;100913.22;;;31.50;27.93